Time;durP1;ratioP1;P1;durP2;ratioP2;P2;SDS_P1;SDS_P2;PMS_P1;PMS_P2;Temp;Humidity;BMP_temperature;BMP_pressure;BME280_temperature;BME280_humidity;BME280_pressure;Samples;Min_cycle;Max_cycle;Signal;HPM_P1;HPM_P2
2021/12/09 00:01:37;;;;;;;1.67;1.00;;;20.30;37.70;;;;;;5032340;28;20021;-68
2021/12/09 00:04:06;;;;;;;2.60;1.25;;;20.30;37.80;;;;;;5019397;28;20026;-68
2021/12/09 00:06:34;;;;;;;1.77;1.00;;;20.30;37.70;;;;;;5012837;28;20467;-68
2021/12/09 00:09:05;;;;;;;1.30;1.00;;;20.30;37.70;;;;;;5011253;28;20071;-68
2021/12/09 00:11:40;;;;;;;1.38;0.82;;;20.30;37.70;;;;;;5012587;28;20033;-68
2021/12/09 00:14:05;;;;;;;2.20;1.27;;;20.30;37.70;;;;;;5012445;28;20486;-68
2021/12/09 00:16:31;;;;;;;2.15;1.27;;;20.30;37.70;;;;;;5012516;28;20097;-68
2021/12/09 00:18:58;;;;;;;2.08;0.90;;;20.30;37.70;;;;;;5028532;28;20018;-68
2021/12/09 00:21:23;;;;;;;1.80;1.20;;;20.30;37.80;;;;;;5035635;28;20013;-68
2021/12/09 00:23:49;;;;;;;2.25;1.40;;;20.30;37.70;;;;;;5035997;28;20027;-68
2021/12/09 00:26:14;;;;;;;2.25;1.02;;;20.20;37.70;;;;;;5036210;28;20474;-68
2021/12/09 00:28:40;;;;;;;2.80;1.00;;;20.20;37.70;;;;;;5035982;28;20025;-68
2021/12/09 00:31:06;;;;;;;1.42;1.00;;;20.20;37.70;;;;;;5035988;28;20079;-68
2021/12/09 00:33:32;;;;;;;1.40;1.02;;;20.20;37.70;;;;;;5034755;28;20040;-68
2021/12/09 00:36:00;;;;;;;2.55;1.13;;;20.20;37.70;;;;;;5035975;28;20474;-68
2021/12/09 00:38:38;;;;;;;2.80;1.33;;;20.20;37.60;;;;;;5016057;28;20032;-68
2021/12/09 00:41:08;;;;;;;1.80;1.10;;;20.20;37.60;;;;;;5014888;28;20498;-68
2021/12/09 00:43:34;;;;;;;2.03;1.20;;;20.20;37.70;;;;;;5015990;28;20029;-68
2021/12/09 00:46:00;;;;;;;1.70;1.20;;;20.20;37.70;;;;;;5016068;28;20049;-68
2021/12/09 00:48:26;;;;;;;2.70;1.20;;;20.20;37.70;;;;;;5015845;28;20513;-68
2021/12/09 00:50:53;;;;;;;1.90;0.98;;;20.20;37.70;;;;;;5015946;28;20105;-68
2021/12/09 00:53:19;;;;;;;1.92;1.25;;;20.20;37.70;;;;;;5015907;28;20034;-68
2021/12/09 00:55:45;;;;;;;1.90;1.00;;;20.20;37.70;;;;;;5015701;28;20573;-68
2021/12/09 00:58:10;;;;;;;1.70;1.00;;;20.20;37.70;;;;;;5015464;28;20132;-68
2021/12/09 01:00:36;;;;;;;1.63;0.90;;;20.20;37.70;;;;;;5015551;28;20038;-68
2021/12/09 01:03:01;;;;;;;1.60;0.98;;;20.20;37.70;;;;;;5015606;28;20069;-68
2021/12/09 01:05:28;;;;;;;1.92;1.00;;;20.20;37.70;;;;;;5015494;28;20017;-68
2021/12/09 01:07:54;;;;;;;2.08;1.25;;;20.20;37.70;;;;;;5014362;28;20026;-68
2021/12/09 01:10:20;;;;;;;2.30;1.20;;;20.20;37.70;;;;;;5015500;28;20025;-68
2021/12/09 01:12:46;;;;;;;1.80;1.20;;;20.20;37.70;;;;;;5015441;28;20022;-68
2021/12/09 01:15:14;;;;;;;1.70;1.10;;;20.10;37.60;;;;;;5015350;28;20022;-68
2021/12/09 01:17:39;;;;;;;1.52;0.90;;;20.10;37.70;;;;;;5019878;28;20025;-68
2021/12/09 01:20:08;;;;;;;1.65;1.13;;;20.20;37.70;;;;;;5035344;28;20104;-68
2021/12/09 01:22:39;;;;;;;3.17;1.27;;;20.10;37.60;;;;;;5033793;28;20406;-68
2021/12/09 01:25:06;;;;;;;1.30;1.10;;;20.10;37.70;;;;;;5035055;28;20047;-68
2021/12/09 01:27:35;;;;;;;1.92;1.15;;;20.10;37.70;;;;;;5035072;28;20433;-68
2021/12/09 01:30:09;;;;;;;2.20;1.20;;;20.10;37.70;;;;;;5034770;28;20085;-68
2021/12/09 01:32:35;;;;;;;1.60;1.00;;;20.10;37.70;;;;;;5034777;28;20022;-68
2021/12/09 01:35:01;;;;;;;1.65;1.00;;;20.10;37.70;;;;;;5034804;28;20032;-68
2021/12/09 01:37:27;;;;;;;1.75;1.13;;;20.10;37.70;;;;;;5034710;28;20485;-68
2021/12/09 01:39:52;;;;;;;1.73;1.30;;;20.10;37.70;;;;;;5033425;28;20032;-68
2021/12/09 01:42:18;;;;;;;1.60;1.00;;;20.10;37.60;;;;;;5034792;28;20021;-68
2021/12/09 01:44:43;;;;;;;1.30;0.98;;;20.10;37.70;;;;;;5034521;28;20022;-68
2021/12/09 01:47:09;;;;;;;2.08;0.90;;;20.00;37.60;;;;;;5034678;28;20022;-68
2021/12/09 01:49:35;;;;;;;1.90;1.20;;;20.00;37.60;;;;;;5034579;28;20030;-68
2021/12/09 01:52:01;;;;;;;2.80;1.30;;;20.10;37.70;;;;;;5034630;28;20435;-68
2021/12/09 01:54:26;;;;;;;2.38;1.20;;;20.00;37.60;;;;;;5034542;28;20506;-68
2021/12/09 01:56:52;;;;;;;1.13;1.00;;;20.00;37.60;;;;;;5034382;28;20108;-68
2021/12/09 01:59:18;;;;;;;1.17;0.98;;;20.00;37.60;;;;;;5034153;28;20053;-68
2021/12/09 02:01:43;;;;;;;2.13;1.10;;;20.00;37.60;;;;;;5034335;28;20156;-68
2021/12/09 02:04:11;;;;;;;2.22;1.20;;;20.00;37.60;;;;;;5020330;28;20061;-68
2021/12/09 02:06:40;;;;;;;1.65;1.08;;;20.00;37.60;;;;;;5014438;28;20498;-68
2021/12/09 02:09:08;;;;;;;1.55;1.00;;;20.00;37.60;;;;;;5014541;28;20474;-68
2021/12/09 02:11:34;;;;;;;1.80;0.80;;;20.00;37.60;;;;;;5014264;28;20026;-68
2021/12/09 02:14:00;;;;;;;2.58;1.08;;;20.00;37.60;;;;;;5014346;28;20478;-68
2021/12/09 02:16:26;;;;;;;2.22;1.40;;;20.00;37.60;;;;;;5014279;28;20026;-68
2021/12/09 02:18:52;;;;;;;1.25;0.93;;;20.00;37.60;;;;;;5029854;28;20017;-68
2021/12/09 02:21:21;;;;;;;2.83;1.15;;;20.00;37.60;;;;;;5033977;28;20018;-68
2021/12/09 02:23:49;;;;;;;1.52;1.05;;;20.00;37.60;;;;;;5032627;28;20473;-68
2021/12/09 02:26:18;;;;;;;1.63;1.00;;;20.00;37.60;;;;;;5033868;28;20109;-68
2021/12/09 02:28:45;;;;;;;1.23;0.90;;;19.90;37.50;;;;;;5033834;28;20040;-68
2021/12/09 02:31:12;;;;;;;1.20;1.05;;;20.00;37.60;;;;;;5033786;28;20053;-68
2021/12/09 02:33:37;;;;;;;1.30;0.93;;;19.90;37.50;;;;;;5032602;28;20076;-68
2021/12/09 02:36:04;;;;;;;2.15;1.10;;;19.90;37.50;;;;;;5032268;28;20037;-68
2021/12/09 02:38:30;;;;;;;1.73;1.10;;;19.90;37.50;;;;;;5033628;28;20030;-68
2021/12/09 02:40:56;;;;;;;1.45;1.02;;;19.90;37.50;;;;;;5033546;28;20489;-68
2021/12/09 02:43:27;;;;;;;1.65;1.00;;;19.90;37.60;;;;;;5032811;28;20025;-68
2021/12/09 02:45:55;;;;;;;1.92;1.10;;;19.90;37.50;;;;;;5033450;28;20033;-68
2021/12/09 02:48:22;;;;;;;2.00;0.80;;;19.90;37.50;;;;;;5033464;28;20057;-68
2021/12/09 02:50:48;;;;;;;2.55;0.90;;;19.90;37.50;;;;;;5033394;28;20482;-68
2021/12/09 02:53:14;;;;;;;2.60;1.10;;;19.90;37.60;;;;;;5033425;28;20025;-68
2021/12/09 02:55:40;;;;;;;1.60;0.98;;;19.90;37.70;;;;;;5033319;28;20056;-68
2021/12/09 02:58:06;;;;;;;1.92;1.10;;;19.90;37.70;;;;;;5031838;28;20363;-68
2021/12/09 03:00:31;;;;;;;1.35;0.85;;;19.90;38.60;;;;;;5033085;28;20029;-68
2021/12/09 03:02:58;;;;;;;1.60;0.95;;;19.90;37.60;;;;;;5028692;28;20025;-68
2021/12/09 03:05:25;;;;;;;1.73;1.10;;;19.90;37.70;;;;;;5013277;28;20474;-68
2021/12/09 03:07:51;;;;;;;2.50;1.17;;;19.90;37.70;;;;;;5013405;28;20022;-68
2021/12/09 03:10:24;;;;;;;2.13;1.10;;;19.90;37.70;;;;;;5013290;28;20018;-68
2021/12/09 03:12:54;;;;;;;2.00;1.08;;;19.90;37.60;;;;;;5045034;28;20030;-68
2021/12/09 03:15:21;;;;;;;1.95;0.85;;;19.90;37.60;;;;;;5013325;28;20021;-68
2021/12/09 03:17:47;;;;;;;1.55;1.00;;;19.90;37.70;;;;;;5019786;28;20021;-68
2021/12/09 03:20:15;;;;;;;2.25;1.10;;;19.90;37.60;;;;;;5032934;28;20091;-68
2021/12/09 03:22:42;;;;;;;2.38;1.30;;;19.90;37.50;;;;;;5032884;28;20076;-68
2021/12/09 03:25:10;;;;;;;1.83;1.00;;;19.90;37.50;;;;;;5032748;28;20377;-68
2021/12/09 03:27:36;;;;;;;1.25;0.80;;;19.80;37.50;;;;;;5033228;28;20091;-68
2021/12/09 03:30:05;;;;;;;2.30;1.30;;;19.80;37.50;;;;;;5032750;28;20428;-68
2021/12/09 03:32:31;;;;;;;1.25;0.90;;;19.80;37.50;;;;;;5031480;28;20474;-68
2021/12/09 03:34:56;;;;;;;1.60;1.10;;;19.80;37.50;;;;;;5032720;28;20032;-68
2021/12/09 03:37:25;;;;;;;2.17;1.17;;;19.80;37.50;;;;;;5032538;28;20022;-68
2021/12/09 03:39:52;;;;;;;2.17;1.00;;;19.80;37.50;;;;;;5032567;28;20032;-68
2021/12/09 03:42:20;;;;;;;2.05;0.90;;;19.80;37.50;;;;;;5032516;28;20022;-68
2021/12/09 03:44:48;;;;;;;1.90;0.98;;;19.80;37.50;;;;;;5032365;28;20025;-68
2021/12/09 03:47:16;;;;;;;2.63;1.25;;;19.80;38.50;;;;;;5032388;28;20569;-68
2021/12/09 03:49:42;;;;;;;1.88;0.98;;;19.80;37.50;;;;;;5032438;28;20032;-68
2021/12/09 03:52:10;;;;;;;1.08;0.98;;;19.80;37.50;;;;;;5031441;28;20060;-68
2021/12/09 03:54:35;;;;;;;1.42;1.00;;;19.80;37.50;;;;;;5030961;28;20018;-68
2021/12/09 03:57:02;;;;;;;1.52;1.13;;;19.80;37.50;;;;;;5031025;28;20095;-68
2021/12/09 03:59:27;;;;;;;1.63;0.90;;;19.80;37.50;;;;;;5032221;28;20076;-68
2021/12/09 04:01:54;;;;;;;2.03;1.00;;;19.80;37.50;;;;;;5031052;28;20057;-68
2021/12/09 04:04:20;;;;;;;1.63;1.00;;;19.80;37.50;;;;;;5032275;28;20013;-68
2021/12/09 04:06:46;;;;;;;1.85;1.02;;;19.80;37.40;;;;;;5032169;28;20030;-68
2021/12/09 04:09:15;;;;;;;1.42;1.10;;;19.80;37.40;;;;;;5032375;28;20107;-68
2021/12/09 04:11:40;;;;;;;1.70;1.10;;;19.80;37.40;;;;;;5032200;28;20025;-68
2021/12/09 04:14:07;;;;;;;1.85;1.02;;;19.70;37.40;;;;;;5032176;28;20430;-68
2021/12/09 04:16:33;;;;;;;1.70;0.85;;;19.70;37.30;;;;;;5032318;28;20033;-68
2021/12/09 04:18:58;;;;;;;1.65;1.00;;;19.70;37.30;;;;;;5032024;28;20036;-68
2021/12/09 04:21:25;;;;;;;1.15;1.02;;;19.70;37.30;;;;;;5032198;28;20037;-68
2021/12/09 04:23:50;;;;;;;1.85;1.20;;;19.70;37.30;;;;;;5032293;28;20147;-68
2021/12/09 04:26:16;;;;;;;1.60;1.02;;;19.70;37.30;;;;;;5032474;28;20100;-69
2021/12/09 04:28:43;;;;;;;2.17;1.00;;;19.70;37.30;;;;;;5032035;28;20122;-68
2021/12/09 04:31:08;;;;;;;2.17;1.00;;;19.70;37.30;;;;;;5032161;28;20044;-68
2021/12/09 04:33:34;;;;;;;1.08;0.80;;;19.70;37.40;;;;;;5030689;28;20025;-68
2021/12/09 04:36:01;;;;;;;1.42;0.93;;;19.70;37.30;;;;;;5032107;28;20151;-68
2021/12/09 04:38:27;;;;;;;1.38;0.98;;;19.70;37.30;;;;;;5010942;28;20482;-68
2021/12/09 04:40:53;;;;;;;1.90;1.13;;;19.70;37.30;;;;;;5010994;28;20014;-68
2021/12/09 04:43:19;;;;;;;1.23;0.80;;;19.70;37.40;;;;;;5012241;28;20100;-68
2021/12/09 04:45:44;;;;;;;1.45;1.00;;;19.70;37.30;;;;;;5012257;28;20558;-68
2021/12/09 04:48:10;;;;;;;1.85;1.13;;;19.70;37.30;;;;;;5012142;28;20014;-68
2021/12/09 04:50:37;;;;;;;1.60;0.95;;;19.70;37.30;;;;;;5010937;28;20390;-68
2021/12/09 04:53:04;;;;;;;1.42;0.93;;;19.70;37.30;;;;;;5012091;28;20022;-68
2021/12/09 04:55:30;;;;;;;1.70;1.10;;;19.60;37.30;;;;;;5012201;28;20026;-68
2021/12/09 04:57:55;;;;;;;2.05;1.00;;;19.60;38.20;;;;;;5011944;28;20026;-68
2021/12/09 05:00:24;;;;;;;1.38;0.90;;;19.60;37.20;;;;;;5011972;28;20045;-68
2021/12/09 05:05:19;;;;;;;1.40;1.00;;;19.60;37.30;;;;;;5031863;28;20057;-68
2021/12/09 05:07:45;;;;;;;2.00;1.00;;;19.60;37.20;;;;;;5035363;28;20052;-68
2021/12/09 05:10:11;;;;;;;1.45;0.95;;;19.60;37.20;;;;;;5035411;28;20030;-68
2021/12/09 05:12:37;;;;;;;1.52;1.00;;;19.60;37.20;;;;;;5035227;28;20026;-68
2021/12/09 05:15:02;;;;;;;1.45;1.00;;;19.60;37.20;;;;;;5067265;28;20022;-68
2021/12/09 05:17:28;;;;;;;1.38;0.82;;;19.60;37.20;;;;;;5035065;28;20022;-68
2021/12/09 05:19:53;;;;;;;2.03;0.98;;;19.60;37.20;;;;;;5035143;28;20030;-68
2021/12/09 05:22:19;;;;;;;1.23;1.00;;;19.60;37.20;;;;;;5035192;28;20029;-68
2021/12/09 05:24:49;;;;;;;2.67;0.88;;;19.60;37.20;;;;;;5034991;28;20363;-68
2021/12/09 05:27:16;;;;;;;1.80;1.00;;;19.60;37.20;;;;;;5035069;28;20101;-68
2021/12/09 05:29:43;;;;;;;1.65;0.93;;;19.60;37.30;;;;;;5035056;28;20025;-68
2021/12/09 05:32:11;;;;;;;1.40;0.90;;;19.60;37.30;;;;;;5034977;28;20470;-68
2021/12/09 05:34:48;;;;;;;1.05;0.82;;;19.60;37.20;;;;;;5034882;28;20100;-68
2021/12/09 05:37:20;;;;;;;1.23;0.80;;;19.60;37.20;;;;;;5034816;28;20461;-68
2021/12/09 05:39:47;;;;;;;1.15;0.90;;;19.60;37.20;;;;;;5034759;28;20021;-68
2021/12/09 05:42:15;;;;;;;2.80;1.13;;;19.60;37.30;;;;;;5034703;28;20445;-68
2021/12/09 05:44:41;;;;;;;2.45;1.00;;;19.60;37.20;;;;;;5034623;28;20013;-68
2021/12/09 05:47:07;;;;;;;2.78;1.08;;;19.60;37.30;;;;;;5034798;28;20479;-68
2021/12/09 05:49:38;;;;;;;1.35;0.88;;;19.60;37.50;;;;;;5034685;28;20022;-68
2021/12/09 05:52:05;;;;;;;1.23;0.80;;;19.70;37.20;;;;;;5033361;28;20425;-68
2021/12/09 05:54:31;;;;;;;1.95;0.63;;;19.70;37.10;;;;;;5034440;28;20021;-68
2021/12/09 05:56:58;;;;;;;1.15;0.90;;;19.80;37.00;;;;;;5033249;28;20029;-68
2021/12/09 05:59:23;;;;;;;1.27;0.90;;;19.90;37.00;;;;;;5034192;28;20084;-68
2021/12/09 06:01:49;;;;;;;1.45;0.90;;;19.90;36.90;;;;;;5033083;28;20386;-68
2021/12/09 06:04:15;;;;;;;1.58;1.00;;;20.00;36.70;;;;;;5019550;28;20026;-68
2021/12/09 06:06:41;;;;;;;1.15;0.90;;;20.20;36.70;;;;;;5014548;28;20025;-68
2021/12/09 06:09:09;;;;;;;0.98;0.75;;;20.20;36.50;;;;;;5014377;28;20026;-68
2021/12/09 06:11:36;;;;;;;1.55;0.73;;;20.30;36.40;;;;;;5014378;28;20026;-68
2021/12/09 06:14:03;;;;;;;2.92;0.90;;;20.50;37.30;;;;;;5014407;28;20032;-68
2021/12/09 06:16:28;;;;;;;1.42;0.90;;;20.50;36.20;;;;;;5014321;28;20030;-68
2021/12/09 06:18:54;;;;;;;1.67;1.00;;;20.60;36.10;;;;;;5030006;28;20500;-68
2021/12/09 06:21:23;;;;;;;1.58;0.80;;;20.70;36.00;;;;;;5034076;28;20053;-68
2021/12/09 06:23:49;;;;;;;1.48;0.80;;;20.80;35.90;;;;;;5032634;28;20022;-68
2021/12/09 06:26:15;;;;;;;1.70;0.90;;;20.90;35.80;;;;;;5032560;28;20028;-68
2021/12/09 06:28:40;;;;;;;1.30;0.90;;;21.00;35.60;;;;;;5032592;28;20030;-68
2021/12/09 06:31:07;;;;;;;1.77;0.95;;;21.10;35.50;;;;;;5033821;28;20029;-68
2021/12/09 06:33:32;;;;;;;1.30;0.77;;;21.20;35.40;;;;;;5032581;28;20439;-68
2021/12/09 06:35:58;;;;;;;1.50;0.73;;;21.20;35.30;;;;;;5033584;28;20025;-68
2021/12/09 06:38:24;;;;;;;2.00;0.70;;;21.30;35.20;;;;;;5032275;28;20033;-68
2021/12/09 06:40:51;;;;;;;1.52;0.80;;;21.30;35.10;;;;;;5032315;28;20531;-68
2021/12/09 06:43:17;;;;;;;2.17;1.00;;;21.40;35.00;;;;;;5033761;28;20393;-68
2021/12/09 06:45:44;;;;;;;1.20;0.80;;;21.40;34.80;;;;;;5033405;28;20022;-68
2021/12/09 06:48:10;;;;;;;1.40;0.77;;;21.50;34.90;;;;;;5032248;28;20033;-68
2021/12/09 06:50:36;;;;;;;1.73;0.80;;;21.60;34.90;;;;;;5033344;28;20037;-68
2021/12/09 06:53:02;;;;;;;1.70;1.13;;;21.60;34.80;;;;;;5033385;28;20033;-68
2021/12/09 06:55:28;;;;;;;1.45;1.00;;;21.70;34.70;;;;;;5033362;28;20013;-68
2021/12/09 06:57:54;;;;;;;0.90;0.65;;;21.70;34.60;;;;;;5033350;28;20076;-68
2021/12/09 07:00:29;;;;;;;1.75;0.90;;;21.80;34.50;;;;;;5032941;28;20041;-68
2021/12/09 07:02:55;;;;;;;1.95;1.00;;;21.80;34.30;;;;;;5029609;28;20114;-68
2021/12/09 07:05:22;;;;;;;1.23;0.77;;;21.80;34.40;;;;;;5035161;28;20109;-68
2021/12/09 07:07:49;;;;;;;1.88;0.90;;;21.90;34.40;;;;;;5053080;28;20382;-68
2021/12/09 07:10:15;;;;;;;1.88;0.88;;;21.90;34.40;;;;;;5052864;28;20021;-68
2021/12/09 07:12:41;;;;;;;1.23;0.73;;;21.90;34.40;;;;;;5051735;28;20017;-68
2021/12/09 07:15:09;;;;;;;1.60;1.00;;;22.00;34.40;;;;;;5052827;28;20404;-68
2021/12/09 07:17:36;;;;;;;1.70;0.80;;;22.00;34.20;;;;;;5047565;28;20465;-68
2021/12/09 07:20:04;;;;;;;2.45;0.95;;;22.00;34.20;;;;;;5031489;28;20498;-68
2021/12/09 07:22:30;;;;;;;1.02;0.65;;;22.10;34.20;;;;;;5032780;28;20108;-68
2021/12/09 07:24:56;;;;;;;1.83;0.75;;;22.10;34.20;;;;;;5031506;28;20500;-68
2021/12/09 07:27:21;;;;;;;1.30;0.70;;;22.10;34.10;;;;;;5032920;28;20021;-68
2021/12/09 07:29:47;;;;;;;2.00;0.80;;;22.10;34.10;;;;;;5032277;28;20470;-68
2021/12/09 07:32:12;;;;;;;2.47;0.70;;;22.20;34.00;;;;;;5032835;28;20030;-68
2021/12/09 07:34:38;;;;;;;2.30;1.00;;;22.20;34.10;;;;;;5031391;28;20425;-68
2021/12/09 07:37:05;;;;;;;1.65;0.80;;;22.20;34.00;;;;;;5024077;28;20446;-68
2021/12/09 07:39:32;;;;;;;1.20;0.70;;;22.20;34.00;;;;;;5012788;28;20375;-68
2021/12/09 07:41:59;;;;;;;0.90;0.75;;;22.30;34.00;;;;;;5011525;28;20037;-68
2021/12/09 07:44:26;;;;;;;0.95;0.60;;;22.30;33.90;;;;;;5011585;28;20049;-68
2021/12/09 07:46:52;;;;;;;1.52;0.82;;;22.30;33.80;;;;;;5011450;28;20076;-68
2021/12/09 07:49:19;;;;;;;1.42;0.80;;;22.30;33.80;;;;;;5012804;28;20042;-68
2021/12/09 07:51:45;;;;;;;1.67;0.82;;;22.40;33.80;;;;;;5012615;28;20534;-68
2021/12/09 07:54:11;;;;;;;1.60;0.85;;;22.40;33.80;;;;;;5011506;28;20050;-68
2021/12/09 07:56:36;;;;;;;1.33;0.68;;;22.40;33.70;;;;;;5012607;28;20061;-68
2021/12/09 07:59:02;;;;;;;1.90;0.98;;;22.40;33.70;;;;;;5012312;28;20410;-68
2021/12/09 08:01:29;;;;;;;1.55;0.82;;;22.50;33.70;;;;;;5011412;28;20029;-68
2021/12/09 08:03:55;;;;;;;1.40;0.70;;;22.50;33.70;;;;;;5019751;28;20097;-68
2021/12/09 08:06:20;;;;;;;1.48;0.93;;;22.50;33.60;;;;;;5012488;28;20018;-68
2021/12/09 08:08:46;;;;;;;0.82;0.73;;;22.50;33.60;;;;;;5012523;28;20385;-68
2021/12/09 08:11:11;;;;;;;1.23;0.75;;;22.60;33.70;;;;;;5011155;28;20363;-70
2021/12/09 08:13:37;;;;;;;2.65;1.00;;;22.50;33.60;;;;;;5028645;28;20032;-70
2021/12/09 08:16:03;;;;;;;1.80;0.70;;;22.60;33.50;;;;;;5032068;28;20025;-70
2021/12/09 08:18:32;;;;;;;3.17;1.05;;;22.60;33.40;;;;;;5033411;28;20023;-70
2021/12/09 08:21:00;;;;;;;3.63;0.90;;;22.60;33.10;;;;;;5041019;28;20499;-70
2021/12/09 08:23:26;;;;;;;1.73;0.73;;;22.60;33.00;;;;;;5038648;28;20021;-70
2021/12/09 08:25:52;;;;;;;3.38;1.17;;;22.60;32.80;;;;;;5047189;28;20024;-70
2021/12/09 08:28:19;;;;;;;2.60;0.95;;;22.60;32.70;;;;;;5035737;28;20017;-70
2021/12/09 08:30:46;;;;;;;1.52;0.93;;;22.60;32.60;;;;;;5044193;28;20068;-70
2021/12/09 08:33:11;;;;;;;2.47;0.95;;;22.60;32.50;;;;;;5042754;28;20388;-71
2021/12/09 08:35:37;;;;;;;1.98;1.00;;;22.50;32.40;;;;;;5036852;28;20665;-71
2021/12/09 08:38:05;;;;;;;2.13;0.90;;;22.60;32.40;;;;;;5033687;28;20026;-71
2021/12/09 08:40:31;;;;;;;1.60;0.90;;;22.60;32.40;;;;;;5030960;28;20497;-70
2021/12/09 08:42:57;;;;;;;1.90;1.17;;;22.60;32.40;;;;;;5034811;28;20025;-70
2021/12/09 08:45:23;;;;;;;2.35;1.05;;;22.50;32.40;;;;;;5044044;28;20067;-70
2021/12/09 08:47:49;;;;;;;1.40;0.82;;;22.60;32.40;;;;;;5041776;28;20527;-72
2021/12/09 08:50:19;;;;;;;3.92;1.05;;;22.60;32.40;;;;;;5027260;28;20163;-70
2021/12/09 08:52:45;;;;;;;2.10;1.02;;;22.60;32.50;;;;;;5031265;28;20457;-71
2021/12/09 08:55:10;;;;;;;2.08;1.10;;;22.60;32.50;;;;;;5043764;28;20018;-70
2021/12/09 08:57:37;;;;;;;2.28;1.27;;;22.60;32.30;;;;;;5031852;28;20480;-70
2021/12/09 09:00:13;;;;;;;2.15;1.20;;;22.70;32.40;;;;;;5042391;28;20389;-70
2021/12/09 09:02:40;;;;;;;3.40;1.10;;;22.70;32.20;;;;;;5041763;28;20017;-70
2021/12/09 09:05:10;;;;;;;1.83;0.93;;;22.70;32.30;;;;;;5040438;28;20063;-70
2021/12/09 09:07:37;;;;;;;2.65;1.20;;;22.70;32.20;;;;;;5042536;28;20017;-70
2021/12/09 09:10:04;;;;;;;1.75;1.10;;;22.70;32.10;;;;;;5040292;28;20055;-70
2021/12/09 09:12:30;;;;;;;2.65;1.20;;;22.80;32.20;;;;;;5044550;28;20028;-70
2021/12/09 09:14:56;;;;;;;2.72;1.00;;;22.80;32.10;;;;;;5045392;28;20487;-71
2021/12/09 09:17:21;;;;;;;1.80;0.82;;;22.80;32.10;;;;;;5037377;28;20041;-71
2021/12/09 09:19:47;;;;;;;2.53;1.20;;;22.80;32.20;;;;;;5040162;28;20044;-70
2021/12/09 09:22:13;;;;;;;1.98;1.00;;;22.80;32.00;;;;;;5045888;28;20432;-70
2021/12/09 09:24:40;;;;;;;2.53;1.38;;;22.80;31.90;;;;;;5043222;28;20469;-70
2021/12/09 09:27:06;;;;;;;2.00;0.90;;;22.80;31.90;;;;;;5043659;28;20013;-70
2021/12/09 09:29:33;;;;;;;2.88;1.25;;;22.80;32.00;;;;;;5043471;28;20017;-70
2021/12/09 09:31:58;;;;;;;2.08;0.90;;;22.90;31.90;;;;;;5041387;28;20084;-70
2021/12/09 09:34:24;;;;;;;2.30;0.85;;;22.90;31.80;;;;;;5044895;28;20420;-70
2021/12/09 09:36:49;;;;;;;2.33;1.00;;;22.90;31.80;;;;;;5040831;28;20017;-70
2021/12/09 09:39:20;;;;;;;2.25;1.00;;;22.90;31.70;;;;;;5038064;28;20047;-69
2021/12/09 09:41:55;;;;;;;3.15;1.02;;;23.00;31.70;;;;;;5036798;28;20063;-70
2021/12/09 09:44:27;;;;;;;3.70;0.90;;;23.00;31.70;;;;;;5036884;28;20492;-70
2021/12/09 09:46:56;;;;;;;1.42;0.88;;;23.00;31.70;;;;;;5037819;28;20027;-70
2021/12/09 09:49:22;;;;;;;1.80;0.98;;;23.00;31.60;;;;;;5040060;28;20013;-70
2021/12/09 09:51:48;;;;;;;2.97;1.15;;;23.10;31.60;;;;;;5043449;28;20032;-70
2021/12/09 09:54:13;;;;;;;1.55;1.10;;;23.10;31.70;;;;;;5041088;28;20109;-70
2021/12/09 09:56:42;;;;;;;4.07;1.17;;;23.10;31.60;;;;;;5042312;28;20417;-70
2021/12/09 09:59:09;;;;;;;1.88;1.13;;;23.10;31.60;;;;;;5039935;28;20457;-70
2021/12/09 10:01:37;;;;;;;2.63;1.17;;;23.10;31.50;;;;;;5029145;28;20037;-70
2021/12/09 10:04:12;;;;;;;2.88;1.00;;;23.10;31.50;;;;;;5040273;28;20424;-70
2021/12/09 10:06:40;;;;;;;2.88;1.20;;;23.20;31.50;;;;;;5044524;28;20043;-70
2021/12/09 10:09:08;;;;;;;2.50;1.10;;;23.10;31.30;;;;;;5039132;28;20013;-70
2021/12/09 10:11:34;;;;;;;2.90;1.15;;;23.10;31.30;;;;;;5045934;28;20036;-69
2021/12/09 10:14:20;;;;;;;2.05;0.93;;;23.10;31.20;;;;;;5044058;28;20057;-69
2021/12/09 10:17:07;;;;;;;1.70;1.17;;;23.10;30.90;;;;;;5040896;28;21319;-70
2021/12/09 10:19:36;;;;;;;2.83;1.20;;;23.10;31.00;;;;;;5035550;28;20432;-69
2021/12/09 10:22:17;;;;;;;2.75;1.30;;;23.10;31.20;;;;;;5041347;28;20113;-69
2021/12/09 10:24:44;;;;;;;2.30;1.35;;;23.10;30.90;;;;;;5043217;28;20374;-69
2021/12/09 10:27:23;;;;;;;2.60;1.20;;;23.10;31.10;;;;;;5044929;28;20419;-70
2021/12/09 10:29:49;;;;;;;2.30;1.00;;;23.10;31.00;;;;;;5047137;28;20449;-69
2021/12/09 10:32:24;;;;;;;1.95;1.00;;;23.10;31.10;;;;;;5038508;28;20060;-70
2021/12/09 10:34:49;;;;;;;1.92;1.20;;;23.10;31.00;;;;;;5046055;28;20056;-69
2021/12/09 10:37:24;;;;;;;2.35;1.20;;;23.10;31.10;;;;;;5036184;28;20055;-69
2021/12/09 10:40:04;;;;;;;2.65;1.10;;;23.10;31.00;;;;;;5037494;28;20033;-69
2021/12/09 10:42:35;;;;;;;2.92;1.10;;;23.10;30.90;;;;;;5036228;28;20385;-69
2021/12/09 10:45:05;;;;;;;2.27;1.17;;;23.10;31.20;;;;;;5028411;28;20036;-69
2021/12/09 10:47:52;;;;;;;2.50;1.20;;;23.10;31.30;;;;;;5039295;28;20936;-69
2021/12/09 10:50:40;;;;;;;1.42;0.93;;;23.10;31.10;;;;;;5033811;28;20071;-70
2021/12/09 10:55:46;;;;;;;5.30;1.27;;;23.10;31.50;;;;;;5042289;28;20127;-70
2021/12/09 10:58:15;;;;;;;4.40;1.25;;;23.10;31.40;;;;;;5039895;28;20021;-71
2021/12/09 11:01:01;;;;;;;2.80;1.00;;;23.10;31.50;;;;;;5041699;28;20497;-70
2021/12/09 11:03:29;;;;;;;4.65;1.30;;;23.20;31.40;;;;;;5040022;28;20534;-69
2021/12/09 11:05:58;;;;;;;3.05;1.13;;;23.20;31.60;;;;;;5042797;28;20104;-70
2021/12/09 11:08:33;;;;;;;4.85;1.30;;;23.20;31.70;;;;;;5039578;28;20029;-70
2021/12/09 11:11:08;;;;;;;4.55;1.42;;;23.20;31.60;;;;;;5037941;28;20029;-70
2021/12/09 11:13:40;;;;;;;4.10;1.40;;;23.20;31.70;;;;;;5038867;28;20489;-69
2021/12/09 11:16:07;;;;;;;2.97;1.55;;;23.20;31.60;;;;;;5042110;28;20057;-70
2021/12/09 11:18:45;;;;;;;2.53;1.33;;;23.20;31.70;;;;;;5041520;28;20033;-70
2021/12/09 11:21:24;;;;;;;4.22;1.48;;;23.20;31.60;;;;;;5038913;28;20075;-69
2021/12/09 11:24:03;;;;;;;2.63;1.30;;;23.20;31.70;;;;;;5039651;28;20020;-70
2021/12/09 11:26:42;;;;;;;2.60;1.50;;;23.20;31.60;;;;;;5037344;28;20080;-71
2021/12/09 11:29:14;;;;;;;4.93;1.70;;;23.20;31.60;;;;;;5042745;28;20025;-70
2021/12/09 11:34:07;;;;;;;3.13;1.23;;;23.30;31.80;;;;;;5075953;28;20398;-68
2021/12/09 11:37:00;;;;;;;6.38;1.50;;;23.30;32.00;;;;;;5077553;28;20021;-71
2021/12/09 11:39:33;;;;;;;2.63;1.35;;;23.30;31.90;;;;;;5069534;28;20020;-72
2021/12/09 11:42:16;;;;;;;5.38;1.60;;;23.20;32.10;;;;;;5074824;28;20495;-68
2021/12/09 11:44:46;;;;;;;2.53;1.40;;;23.20;32.00;;;;;;5080045;28;20033;-70
2021/12/09 11:47:12;;;;;;;4.13;1.50;;;23.10;32.00;;;;;;5072559;28;20027;-69
2021/12/09 11:49:38;;;;;;;3.63;1.70;;;23.10;31.90;;;;;;5077981;28;20051;-69
2021/12/09 11:52:04;;;;;;;2.63;1.30;;;23.10;32.00;;;;;;5081632;28;20029;-68
2021/12/09 11:54:30;;;;;;;2.90;1.40;;;23.10;31.90;;;;;;5074706;28;20029;-69
2021/12/09 11:57:13;;;;;;;3.00;1.60;;;23.10;31.90;;;;;;5077534;28;20092;-70
2021/12/09 12:11:26;;;;;;;3.20;1.50;;;23.00;31.70;;;;;;5058367;28;20429;-70
2021/12/09 12:13:59;;;;;;;2.47;1.40;;;23.00;31.50;;;;;;5058731;28;20037;-69
2021/12/09 12:19:50;;;;;;;2.65;1.33;;;23.00;31.70;;;;;;5058671;28;20089;-69
2021/12/09 12:23:19;;;;;;;3.38;1.40;;;23.00;31.50;;;;;;5051955;28;20021;-68
2021/12/09 12:34:50;;;;;;;2.35;1.20;;;22.80;31.70;;;;;;5057423;28;20459;-69
2021/12/09 12:40:17;;;;;;;2.67;1.50;;;22.70;32.00;;;;;;5054222;28;20025;-69
2021/12/09 12:43:17;;;;;;;3.15;1.50;;;22.80;32.00;;;;;;5054703;28;20029;-71
2021/12/09 12:46:05;;;;;;;2.08;1.10;;;22.70;31.80;;;;;;5043074;28;20486;-70
2021/12/09 12:49:11;;;;;;;2.53;1.40;;;22.70;32.10;;;;;;5040609;28;20467;-70
2021/12/09 12:51:34;;;;;;;2.83;1.35;;;22.70;32.60;;;;;;5041278;28;20421;-69
2021/12/09 12:54:13;;;;;;;2.47;1.15;;;22.70;32.10;;;;;;5045339;28;20104;-69
2021/12/09 12:56:45;;;;;;;2.60;1.40;;;22.70;32.10;;;;;;5041718;28;20036;-69
2021/12/09 12:59:13;;;;;;;2.55;1.25;;;22.70;32.00;;;;;;5041061;28;20017;-69
2021/12/09 13:01:50;;;;;;;2.88;1.27;;;22.70;32.10;;;;;;5049140;28;20019;-69
2021/12/09 13:05:27;;;;;;;2.95;1.52;;;22.80;32.20;;;;;;5026737;28;20447;-69
2021/12/09 13:21:41;;;;;;;2.03;1.30;;;22.70;32.40;;;;;;5043248;28;20053;-70
2021/12/09 13:24:19;;;;;;;2.13;1.30;;;22.80;32.40;;;;;;5041717;28;20029;-70
2021/12/09 13:27:36;;;;;;;2.05;1.17;;;22.80;32.40;;;;;;5044842;28;20462;-70
2021/12/09 13:30:19;;;;;;;2.38;1.20;;;22.80;32.40;;;;;;5037858;28;20041;-69
2021/12/09 13:39:25;;;;;;;2.35;1.30;;;22.90;32.70;;;;;;5037785;28;20033;-71
2021/12/09 13:47:27;;;;;;;2.58;1.48;;;23.00;32.80;;;;;;5045149;28;20041;-69
2021/12/09 13:55:08;;;;;;;3.00;1.25;;;23.10;32.90;;;;;;5040941;28;20112;-70
2021/12/09 13:57:41;;;;;;;1.98;1.17;;;23.10;32.80;;;;;;5041809;28;20054;-70
2021/12/09 14:00:12;;;;;;;;;;;23.10;32.90;;;;;;5044495;28;20049;-71
2021/12/09 14:02:37;;;;;;;1.90;1.05;;;23.10;32.80;;;;;;5042374;28;20545;-69